Tuesday, January 17, 2017, 3:51 AM EST

KRIC, Richmond International Airport

Location: Sandston, VA, United States Lat: 37.517
Local Time: 3:51 AM EST ( 8:51 GMT) Lon: -77.317
Time Zone: US/Eastern Elev: 167 ft

Show me the last for .
Show Decoded

2017-01-17 03:27 METAR KRIC 170827Z 16004KT 5SM BR BKN004 OVC095 06/05 A3024 RMK AO2 T00560050 =
2017-01-17 02:54 METAR KRIC 170754Z 19004KT 5SM BR FEW006 OVC090 05/05 A3027 RMK AO2 SLP255
                 T00500050 =
2017-01-17 02:24 METAR KRIC 170724Z 14003KT 6SM BR FEW006 BKN100 06/05 A3026 RMK AO2 T00560050 =
2017-01-17 01:54 METAR KRIC 170654Z 17004KT 6SM BR OVC006 06/05 A3026 RMK AO2 SLP253 T00560050 =
2017-01-17 00:54 METAR KRIC 170554Z 20005KT 7SM OVC009 06/05 A3029 RMK AO2 CIG 006V012 SLP263
                 T00560050 10061 20056 58012 =
2017-01-17 00:22 METAR KRIC 170522Z 17005KT 7SM BKN008 OVC012 06/05 A3029 RMK AO2 CIG 006V010
                 T00560050 =
2017-01-16 23:54 METAR KRIC 170454Z 19004KT 8SM OVC011 06/05 A3031 RMK AO2 SLP268 T00560050
                 400610028 =
2017-01-16 23:08 METAR KRIC 170408Z 18004KT 10SM FEW008 OVC017 06/05 A3032 =
2017-01-16 22:54 METAR KRIC 170354Z 18003KT 10SM FEW010 OVC017 06/04 A3032 RMK AO2 SLP274
                 T00560044 =
2017-01-16 22:50 METAR KRIC 170350Z 18004KT 10SM SCT010 OVC018 06/04 A3033 RMK AO2 =
2017-01-16 21:54 METAR KRIC 170254Z 20006KT 10SM OVC013 06/04 A3035 RMK AO2 SLP283 T00610044
                 58003 =
2017-01-16 20:54 METAR KRIC 170154Z 20005KT 10SM OVC017 06/04 A3037 RMK AO2 SLP289 T00560039 =
2017-01-16 19:54 METAR KRIC 170054Z 00000KT 10SM BKN023 OVC110 06/04 A3036 RMK AO2 SLP287
                 T00560039 =
2017-01-16 19:51 METAR KRIC 170051Z 00000KT 10SM BKN023 BKN080 OVC110 06/04 A3036 RMK AO2 =
2017-01-16 19:39 METAR KRIC 170039Z 15003KT 10SM FEW025 BKN075 OVC100 06/04 A3036 RMK AO2
                 T00560039 =
2017-01-16 18:54 METAR KRIC 162354Z 15003KT 10SM BKN017 BKN025 OVC065 06/03 A3036 RMK AO2 SLP288
                 T00560033 10061 20050 58006 =
2017-01-16 17:54 METAR KRIC 162254Z 15003KT 10SM OVC024 06/03 A3037 RMK AO2 SLP291 T00610033 =
2017-01-16 16:54 METAR KRIC 162154Z 17004KT 10SM OVC026 06/03 A3038 RMK AO2 SLP295 T00610033 =
2017-01-16 15:54 METAR KRIC 162054Z 18005KT 10SM OVC027 06/03 A3038 RMK AO2 SLP294 T00610028
                 56013 =
2017-01-16 15:16 METAR KRIC 162016Z 16004KT 10SM OVC025 06/03 A3038 RMK AO2 T00610028 =
2017-01-16 14:54 METAR KRIC 161954Z 13004KT 10SM SCT025 OVC034 06/03 A3038 RMK AO2 SLP295
                 T00610028 =
2017-01-16 13:54 METAR KRIC 161854Z 18003KT 10SM SCT025 BKN034 OVC045 06/02 A3039 RMK AO2 SLP297
                 T00610022 =
2017-01-16 12:54 METAR KRIC 161754Z VRB03KT 10SM FEW020 OVC039 06/02 A3042 RMK AO2 SLP307
                 T00560022 10056 20033 58023 =
2017-01-16 11:54 METAR KRIC 161654Z 00000KT 10SM FEW023 OVC036 05/02 A3045 RMK AO2 SLP318
                 T00500017 =
2017-01-16 10:54 METAR KRIC 161554Z 00000KT 10SM FEW024 FEW029 OVC036 04/02 A3049 RMK AO2 SLP330
                 T00440022 =
2017-01-16 09:54 METAR KRIC 161454Z 00000KT 10SM FEW020 OVC037 04/02 A3049 RMK AO2 SLP330
                 T00390017 53015 =
2017-01-16 08:54 METAR KRIC 161354Z 00000KT 10SM FEW020 BKN038 OVC045 03/02 A3047 RMK AO2 SLP323
                 T00330017 =
2017-01-16 07:54 METAR KRIC 161254Z 00000KT 10SM FEW035 OVC041 03/01 A3045 RMK AO2 SLP318
                 T00330011 =
2017-01-16 06:54 METAR KRIC 161154Z 00000KT 10SM FEW007 OVC047 03/02 A3044 RMK AO2 SLP315 60010
                 70011 T00280022 10044 20028 53006 =
2017-01-16 05:54 METAR KRIC 161054Z 12004KT 8SM FEW008 OVC050 03/02 A3044 RMK AO2 RAE46 SLP313
                 P0001 T00280017 =
2017-01-16 05:18 METAR KRIC 161018Z 11004KT 9SM -RA FEW006 BKN047 OVC060 03/03 A3044 RMK AO2
                 P0001 T00330028 =
2017-01-16 04:54 METAR KRIC 160954Z 12004KT 7SM -RA OVC060 03/02 A3043 RMK AO2 SLP310 P0002
                 T00330022 =
2017-01-16 04:44 METAR KRIC 160944Z 13004KT 7SM -RA FEW008 BKN055 OVC070 03/02 A3043 RMK AO2
                 P0002 T00330022 =
2017-01-16 03:54 METAR KRIC 160854Z 08003KT 4SM -RA BR FEW036 SCT050 OVC075 04/03 A3043 RMK AO2
                 SLP309 P0005 60007 T00390033 51005 =

Support USWX by starting your Amazon purchase here.